Time;durP1;ratioP1;P1;durP2;ratioP2;P2;SDS_P1;SDS_P2;PMS_P1;PMS_P2;Temp;Humidity;BMP_temperature;BMP_pressure;BME280_temperature;BME280_humidity;BME280_pressure;Samples;Min_cycle;Max_cycle;Signal;HPM_P1;HPM_P2
2021/05/17 00:02:21;;;;;;;2.07;1.77;;;12.50;99.90;;;;;;5020848;28;20246;-70
2021/05/17 00:04:48;;;;;;;1.80;1.43;;;12.50;99.90;;;;;;5017953;28;20482;-70
2021/05/17 00:07:14;;;;;;;1.60;1.50;;;12.50;99.90;;;;;;5015221;28;20451;-71
2021/05/17 00:09:41;;;;;;;4.10;1.70;;;12.60;99.90;;;;;;5018453;28;20469;-73
2021/05/17 00:12:08;;;;;;;1.63;1.33;;;12.60;99.90;;;;;;5016117;28;20527;-74
2021/05/17 00:14:34;;;;;;;4.13;1.43;;;12.60;99.90;;;;;;5018327;28;20498;-68
2021/05/17 00:17:00;;;;;;;1.50;1.40;;;12.60;99.90;;;;;;5017459;28;20443;-71
2021/05/17 00:19:26;;;;;;;4.30;1.60;;;12.60;99.90;;;;;;5021152;28;20442;-72
2021/05/17 00:21:52;;;;;;;1.53;1.43;;;12.60;99.90;;;;;;5016806;28;20439;-73
2021/05/17 00:24:19;;;;;;;2.80;1.80;;;12.60;99.90;;;;;;5018231;28;20654;-69
2021/05/17 00:26:45;;;;;;;2.57;1.80;;;12.50;99.90;;;;;;5016859;28;20530;-70
2021/05/17 00:29:12;;;;;;;4.87;1.70;;;12.50;99.90;;;;;;5018783;28;20440;-68
2021/05/17 00:31:39;;;;;;;1.50;1.40;;;12.40;99.90;;;;;;5016590;28;20447;-71
2021/05/17 00:34:06;;;;;;;6.60;1.57;;;12.50;99.90;;;;;;5018986;28;20473;-68
2021/05/17 00:36:32;;;;;;;1.53;1.27;;;12.50;99.90;;;;;;4985163;28;20463;-69
2021/05/17 00:39:03;;;;;;;2.40;1.40;;;12.50;99.90;;;;;;5019870;28;20451;-69
2021/05/17 00:41:29;;;;;;;3.73;1.50;;;12.50;99.90;;;;;;5003254;28;20197;-71
2021/05/17 00:43:55;;;;;;;1.90;1.50;;;12.50;99.90;;;;;;5017343;28;20471;-71
2021/05/17 00:46:23;;;;;;;2.43;1.50;;;12.50;99.90;;;;;;5021150;28;20562;-72
2021/05/17 00:48:49;;;;;;;1.93;1.60;;;12.50;99.90;;;;;;5018216;28;20521;-68
2021/05/17 00:51:16;;;;;;;2.43;1.40;;;12.50;99.90;;;;;;4999430;28;20447;-71
2021/05/17 00:53:43;;;;;;;1.67;1.50;;;12.50;99.90;;;;;;5018032;28;20463;-69
2021/05/17 00:56:09;;;;;;;3.77;1.40;;;12.50;99.90;;;;;;5014856;28;21206;-73
2021/05/17 00:58:35;;;;;;;1.50;1.40;;;12.50;99.90;;;;;;5014819;28;20500;-68
2021/05/17 01:01:05;;;;;;;3.17;1.53;;;12.50;99.90;;;;;;5017405;28;20928;-70
2021/05/17 01:03:32;;;;;;;2.93;1.77;;;12.40;99.90;;;;;;4998874;28;20514;-73
2021/05/17 01:06:00;;;;;;;1.80;1.40;;;12.40;99.90;;;;;;5019210;28;20570;-69
2021/05/17 01:08:52;;;;;;;2.33;1.33;;;12.40;99.90;;;;;;5019308;28;20517;-71
2021/05/17 01:11:19;;;;;;;2.77;1.77;;;12.40;99.90;;;;;;5003550;28;20498;-69
2021/05/17 01:13:45;;;;;;;3.03;1.80;;;12.40;99.90;;;;;;5014276;28;20478;-71
2021/05/17 01:16:11;;;;;;;1.80;1.70;;;12.40;99.90;;;;;;5017889;28;20448;-73
2021/05/17 01:18:39;;;;;;;1.80;1.40;;;12.40;99.90;;;;;;5017525;28;20551;-69
2021/05/17 01:21:08;;;;;;;1.77;1.50;;;12.40;99.90;;;;;;5020099;28;20447;-67
2021/05/17 01:23:45;;;;;;;2.07;1.40;;;12.50;99.90;;;;;;5018118;28;20524;-69
2021/05/17 01:26:12;;;;;;;5.90;1.43;;;12.40;99.90;;;;;;5014833;28;20472;-69
2021/05/17 01:28:39;;;;;;;2.10;1.50;;;12.40;99.90;;;;;;5015622;28;20463;-76
2021/05/17 01:31:06;;;;;;;2.27;1.60;;;12.40;99.90;;;;;;5019405;28;20522;-70
2021/05/17 01:33:35;;;;;;;2.00;1.50;;;12.40;99.90;;;;;;5011898;28;21034;-71
2021/05/17 01:36:01;;;;;;;1.40;1.30;;;12.40;99.90;;;;;;5015176;28;20450;-71
2021/05/17 01:38:28;;;;;;;1.77;1.67;;;12.40;99.90;;;;;;5018099;28;20451;-71
2021/05/17 01:40:55;;;;;;;1.77;1.67;;;12.30;99.90;;;;;;4995149;28;20448;-68
2021/05/17 01:43:23;;;;;;;1.83;1.53;;;12.30;99.90;;;;;;5014698;28;20486;-70
2021/05/17 01:45:49;;;;;;;3.13;1.60;;;12.20;99.90;;;;;;5015053;28;20497;-69
2021/05/17 01:48:25;;;;;;;2.90;1.50;;;12.20;99.90;;;;;;5015186;28;20451;-72
2021/05/17 01:50:51;;;;;;;1.93;1.40;;;12.20;99.90;;;;;;5014981;28;20552;-72
2021/05/17 01:53:18;;;;;;;2.07;1.50;;;12.20;99.90;;;;;;5016443;28;21011;-67
2021/05/17 01:55:44;;;;;;;3.50;1.60;;;12.20;99.90;;;;;;5016842;28;20455;-74
2021/05/17 01:58:22;;;;;;;3.20;1.50;;;12.20;99.90;;;;;;5016134;28;20438;-72
2021/05/17 02:00:49;;;;;;;1.63;1.40;;;12.20;99.90;;;;;;5013960;28;20443;-71
2021/05/17 02:03:15;;;;;;;2.70;1.30;;;12.30;99.90;;;;;;5014380;28;20830;-72
2021/05/17 02:05:41;;;;;;;4.80;1.53;;;12.20;99.90;;;;;;5019705;28;20473;-69
2021/05/17 02:08:11;;;;;;;1.80;1.30;;;12.20;99.90;;;;;;5017465;28;20647;-70
2021/05/17 02:10:39;;;;;;;2.43;1.53;;;12.20;99.90;;;;;;5019541;28;21007;-71
2021/05/17 02:13:08;;;;;;;4.40;1.63;;;12.20;99.90;;;;;;5016359;28;20834;-71
2021/05/17 02:15:36;;;;;;;4.73;1.63;;;12.10;99.90;;;;;;5016792;28;20623;-73
2021/05/17 02:18:09;;;;;;;5.07;1.50;;;12.10;99.90;;;;;;5018397;28;20447;-70
2021/05/17 02:20:37;;;;;;;3.40;1.40;;;12.20;99.90;;;;;;5018411;28;20454;-69
2021/05/17 02:23:04;;;;;;;1.43;1.33;;;12.10;99.90;;;;;;5018018;28;20483;-74
2021/05/17 02:25:31;;;;;;;2.83;1.40;;;12.10;99.90;;;;;;5017257;28;21959;-69
2021/05/17 02:27:57;;;;;;;1.43;1.30;;;12.10;99.90;;;;;;5021859;28;20785;-71
2021/05/17 02:30:24;;;;;;;1.60;1.30;;;12.10;99.90;;;;;;5019880;28;20447;-73
2021/05/17 02:32:51;;;;;;;6.40;1.60;;;12.10;99.90;;;;;;5020605;28;20454;-71
2021/05/17 02:35:19;;;;;;;1.70;1.30;;;12.10;99.90;;;;;;5017230;28;20525;-74
2021/05/17 02:37:45;;;;;;;2.53;1.30;;;12.10;99.90;;;;;;5002759;28;20516;-69
2021/05/17 02:40:11;;;;;;;3.33;1.40;;;12.20;99.90;;;;;;5020500;28;20966;-69
2021/05/17 02:42:42;;;;;;;5.77;1.37;;;12.10;99.90;;;;;;5023487;28;20877;-71
2021/05/17 02:45:09;;;;;;;1.77;1.47;;;12.10;99.90;;;;;;5022068;28;20480;-74
2021/05/17 02:47:36;;;;;;;1.53;1.40;;;12.10;99.90;;;;;;5023176;28;20435;-68
2021/05/17 02:50:06;;;;;;;2.53;1.50;;;12.00;99.90;;;;;;5017891;28;20449;-73
2021/05/17 02:52:32;;;;;;;3.00;1.40;;;12.00;99.90;;;;;;5025374;28;21024;-72
2021/05/17 02:55:08;;;;;;;2.07;1.73;;;12.00;99.90;;;;;;5024973;28;20519;-72
2021/05/17 02:57:41;;;;;;;2.60;1.40;;;11.90;99.90;;;;;;5022813;28;20469;-73
2021/05/17 03:00:19;;;;;;;2.17;1.60;;;12.00;99.90;;;;;;5021776;28;20483;-70
2021/05/17 03:03:15;;;;;;;3.33;1.63;;;12.00;99.90;;;;;;5025042;28;20527;-69
2021/05/17 03:05:43;;;;;;;1.73;1.63;;;11.90;99.90;;;;;;5021598;28;20459;-70
2021/05/17 03:08:24;;;;;;;2.30;1.20;;;11.90;99.90;;;;;;5022837;28;20493;-71
2021/05/17 03:10:51;;;;;;;2.93;1.57;;;12.00;99.90;;;;;;5022782;28;20859;-71
2021/05/17 03:13:18;;;;;;;2.00;1.50;;;11.90;99.90;;;;;;5018257;28;20471;-71
2021/05/17 03:15:46;;;;;;;2.43;1.40;;;11.90;99.90;;;;;;5023844;28;20451;-68
2021/05/17 03:18:12;;;;;;;3.60;1.97;;;11.90;99.90;;;;;;5020361;28;20903;-69
2021/05/17 03:20:38;;;;;;;1.93;1.30;;;11.80;99.90;;;;;;5020100;28;20997;-70
2021/05/17 03:23:13;;;;;;;1.63;1.50;;;11.90;99.90;;;;;;5021986;28;20474;-71
2021/05/17 03:25:42;;;;;;;2.27;1.50;;;11.80;99.90;;;;;;5020595;28;20469;-71
2021/05/17 03:28:09;;;;;;;2.10;1.37;;;11.80;99.90;;;;;;5019853;28;20443;-72
2021/05/17 03:30:34;;;;;;;4.93;1.93;;;11.80;99.90;;;;;;5023231;28;20584;-72
2021/05/17 03:33:00;;;;;;;3.23;2.93;;;11.80;99.90;;;;;;5017844;28;20566;-75
2021/05/17 03:35:26;;;;;;;2.53;1.60;;;11.80;99.90;;;;;;5020695;28;20188;-69
2021/05/17 03:37:52;;;;;;;1.97;1.77;;;11.90;99.90;;;;;;5021651;28;20204;-70
2021/05/17 03:40:18;;;;;;;1.97;1.30;;;11.90;99.90;;;;;;5020254;28;20193;-70
2021/05/17 03:42:45;;;;;;;7.17;1.93;;;11.80;99.90;;;;;;5022775;28;20560;-70
2021/05/17 03:45:13;;;;;;;3.43;1.60;;;11.80;99.90;;;;;;5022342;28;21062;-71
2021/05/17 03:47:39;;;;;;;1.57;1.47;;;11.80;99.90;;;;;;5020051;28;20447;-68
2021/05/17 03:50:07;;;;;;;1.70;1.30;;;11.70;99.90;;;;;;5022571;28;20466;-69
2021/05/17 03:52:33;;;;;;;2.03;1.70;;;11.70;99.90;;;;;;5020485;28;20223;-69
2021/05/17 03:54:59;;;;;;;2.97;1.57;;;11.70;99.90;;;;;;5022649;28;20443;-71
2021/05/17 03:57:25;;;;;;;2.50;1.50;;;11.60;99.90;;;;;;5024395;28;20263;-72
2021/05/17 03:59:50;;;;;;;3.10;1.53;;;11.70;99.90;;;;;;5022916;28;20462;-69
2021/05/17 04:02:19;;;;;;;1.50;1.40;;;11.70;99.90;;;;;;5020344;28;20591;-70
2021/05/17 04:05:06;;;;;;;7.53;1.60;;;11.70;99.90;;;;;;5023658;28;20232;-70
2021/05/17 04:15:39;;;;;;;3.10;1.50;;;11.60;99.90;;;;;;5018574;28;20501;-73
2021/05/17 04:18:04;;;;;;;2.17;1.90;;;11.60;99.90;;;;;;5017847;28;20450;-73
2021/05/17 04:20:30;;;;;;;5.47;1.40;;;11.60;99.90;;;;;;5016175;28;22287;-69
2021/05/17 04:22:56;;;;;;;3.40;1.50;;;11.50;99.90;;;;;;5018200;28;20778;-69
2021/05/17 04:25:21;;;;;;;1.73;1.63;;;11.50;99.90;;;;;;5019376;28;20235;-68
2021/05/17 04:27:47;;;;;;;4.70;2.00;;;11.50;99.90;;;;;;5018591;28;20189;-73
2021/05/17 04:30:13;;;;;;;5.43;1.53;;;11.50;99.90;;;;;;5016834;28;20326;-67
2021/05/17 04:32:38;;;;;;;3.00;1.60;;;11.50;99.90;;;;;;5015201;28;20219;-74
2021/05/17 04:35:04;;;;;;;2.23;1.40;;;11.50;99.90;;;;;;5017985;28;20450;-73
2021/05/17 04:37:30;;;;;;;1.50;1.40;;;11.40;99.90;;;;;;5014266;28;20196;-68
2021/05/17 04:39:56;;;;;;;3.80;1.50;;;11.40;99.90;;;;;;5019119;28;20497;-70
2021/05/17 04:42:21;;;;;;;2.70;2.13;;;11.40;99.90;;;;;;5018108;28;20351;-73
2021/05/17 04:44:47;;;;;;;3.00;1.60;;;11.50;99.90;;;;;;5017942;28;20220;-69
2021/05/17 04:47:13;;;;;;;5.20;1.63;;;11.50;99.90;;;;;;5014605;28;20327;-68
2021/05/17 04:49:38;;;;;;;2.83;1.83;;;11.60;99.90;;;;;;5017465;28;20893;-72
2021/05/17 04:52:04;;;;;;;2.10;1.60;;;11.60;99.90;;;;;;5014553;28;20270;-70
2021/05/17 04:54:30;;;;;;;3.57;2.27;;;11.60;99.90;;;;;;5017810;28;20195;-71
2021/05/17 04:56:56;;;;;;;2.93;1.83;;;11.60;99.90;;;;;;5016097;28;20435;-72
2021/05/17 04:59:21;;;;;;;1.93;1.50;;;11.60;99.90;;;;;;5016789;28;20597;-74
2021/05/17 05:01:47;;;;;;;3.20;1.70;;;11.60;99.90;;;;;;5017560;28;20626;-69
2021/05/17 05:04:13;;;;;;;1.67;1.57;;;11.60;99.90;;;;;;5014563;28;20189;-69
2021/05/17 05:06:39;;;;;;;4.60;1.60;;;11.50;99.90;;;;;;5016480;28;20216;-72
2021/05/17 05:09:05;;;;;;;3.30;1.40;;;11.50;99.90;;;;;;5012405;28;20494;-72
2021/05/17 05:11:30;;;;;;;1.60;1.50;;;11.50;99.90;;;;;;5013639;28;20188;-73
2021/05/17 05:13:56;;;;;;;2.67;1.33;;;11.50;99.90;;;;;;5017207;28;21229;-70
2021/05/17 05:16:22;;;;;;;3.33;1.80;;;11.40;99.90;;;;;;5018834;28;20855;-72
2021/05/17 05:18:47;;;;;;;6.23;1.60;;;11.50;99.90;;;;;;5019211;28;20204;-71
2021/05/17 05:21:13;;;;;;;2.70;1.50;;;11.40;99.90;;;;;;5016209;28;20611;-70
2021/05/17 05:23:38;;;;;;;3.40;1.60;;;11.40;99.90;;;;;;5014968;28;20224;-74
2021/05/17 05:33:38;;;;;;;5.00;1.60;;;11.40;99.90;;;;;;5015399;28;20861;-69
2021/05/17 05:36:04;;;;;;;1.90;1.40;;;11.40;99.90;;;;;;5013581;28;20453;-71
2021/05/17 05:38:30;;;;;;;2.60;1.83;;;11.30;99.90;;;;;;5012671;28;20215;-74
2021/05/17 05:40:55;;;;;;;1.87;1.50;;;11.30;99.90;;;;;;5019173;28;20552;-72
2021/05/17 05:43:21;;;;;;;2.93;1.60;;;11.30;99.90;;;;;;5012726;28;21530;-69
2021/05/17 05:45:48;;;;;;;4.40;1.70;;;11.30;99.90;;;;;;4994831;28;20307;-69
2021/05/17 05:48:13;;;;;;;1.90;1.60;;;11.30;99.90;;;;;;5014590;28;20197;-74
2021/05/17 05:50:39;;;;;;;2.43;2.03;;;11.30;99.90;;;;;;5011374;28;20455;-67
2021/05/17 05:53:06;;;;;;;3.63;1.57;;;11.30;99.90;;;;;;5014230;28;20295;-72
2021/05/17 05:55:33;;;;;;;3.10;1.50;;;11.30;99.90;;;;;;5013210;28;20214;-71
2021/05/17 05:57:59;;;;;;;1.83;1.40;;;11.30;99.90;;;;;;5016187;28;20458;-70
2021/05/17 06:00:29;;;;;;;2.07;1.30;;;11.40;99.90;;;;;;5014082;28;20937;-73
2021/05/17 06:02:59;;;;;;;3.23;1.80;;;11.40;99.90;;;;;;4995065;28;22266;-69
2021/05/17 06:05:24;;;;;;;4.40;1.60;;;11.50;99.90;;;;;;5016421;28;20478;-72
2021/05/17 06:07:51;;;;;;;1.90;1.40;;;11.50;99.90;;;;;;5014359;28;20447;-71
2021/05/17 06:10:17;;;;;;;1.97;1.40;;;11.60;99.90;;;;;;4996045;28;20258;-71
2021/05/17 06:12:46;;;;;;;4.83;1.50;;;11.60;99.90;;;;;;5010672;28;20462;-72
2021/05/17 06:15:12;;;;;;;1.60;1.50;;;11.70;99.90;;;;;;5013868;28;20435;-69
2021/05/17 06:17:39;;;;;;;1.30;1.20;;;11.70;99.90;;;;;;5013312;28;20518;-70
2021/05/17 06:20:06;;;;;;;2.27;1.90;;;11.70;99.90;;;;;;5020519;28;20443;-70
2021/05/17 06:22:33;;;;;;;2.23;1.50;;;11.80;99.90;;;;;;5018466;28;20561;-71
2021/05/17 06:24:59;;;;;;;1.93;1.60;;;11.80;99.90;;;;;;5019447;28;20551;-68
2021/05/17 06:27:25;;;;;;;2.70;1.90;;;11.90;99.90;;;;;;5022156;28;22052;-69
2021/05/17 06:29:54;;;;;;;2.90;1.53;;;12.00;99.90;;;;;;5018923;28;20443;-70
2021/05/17 06:32:20;;;;;;;2.20;1.77;;;12.00;99.90;;;;;;5020199;28;20502;-69
2021/05/17 06:34:48;;;;;;;2.00;1.50;;;12.00;99.90;;;;;;5019519;28;20439;-72
2021/05/17 06:37:14;;;;;;;2.13;1.40;;;12.10;99.90;;;;;;5019121;28;20766;-71
2021/05/17 06:39:40;;;;;;;2.60;1.90;;;12.30;99.90;;;;;;5020020;28;20442;-71
2021/05/17 06:42:06;;;;;;;4.90;1.70;;;12.30;99.90;;;;;;5019777;28;20847;-70
2021/05/17 06:44:32;;;;;;;2.70;2.33;;;12.20;99.90;;;;;;5016738;28;20204;-71
2021/05/17 06:46:58;;;;;;;1.77;1.53;;;12.20;99.90;;;;;;5018553;28;20992;-71
2021/05/17 06:49:26;;;;;;;2.80;1.63;;;12.20;99.90;;;;;;5018930;28;20584;-72
2021/05/17 06:51:53;;;;;;;1.73;1.63;;;12.30;99.90;;;;;;5015883;28;20576;-71
2021/05/17 06:54:23;;;;;;;2.07;1.70;;;12.30;99.90;;;;;;5016927;28;20439;-69
2021/05/17 06:59:42;;;;;;;6.93;2.70;;;12.50;99.90;;;;;;5018516;28;20470;-70
2021/05/17 07:02:20;;;;;;;6.93;2.17;;;12.60;99.90;;;;;;5022545;28;20520;-69
2021/05/17 07:04:46;;;;;;;2.97;1.60;;;12.60;99.90;;;;;;5023720;28;20438;-69
2021/05/17 07:07:32;;;;;;;4.03;1.50;;;12.70;99.90;;;;;;5021554;28;20433;-70
2021/05/17 07:12:42;;;;;;;7.17;2.07;;;12.70;99.90;;;;;;5021468;28;20446;-71
2021/05/17 07:15:09;;;;;;;5.47;1.97;;;12.80;99.90;;;;;;5022313;28;21217;-71
2021/05/17 07:17:35;;;;;;;4.30;1.73;;;12.70;99.90;;;;;;5023465;28;22349;-70
2021/05/17 07:20:00;;;;;;;3.17;1.83;;;12.60;99.90;;;;;;5023225;28;20910;-70
2021/05/17 07:25:10;;;;;;;2.90;1.90;;;12.30;99.90;;;;;;5019820;28;20219;-69
2021/05/17 07:27:36;;;;;;;2.53;2.33;;;12.20;99.90;;;;;;5022467;28;20455;-70
2021/05/17 07:30:03;;;;;;;8.70;2.27;;;12.20;99.90;;;;;;5018486;28;20277;-71
2021/05/17 07:32:29;;;;;;;2.70;2.20;;;12.20;99.90;;;;;;5021630;28;20715;-72
2021/05/17 07:34:55;;;;;;;3.67;1.83;;;12.30;99.90;;;;;;5022309;28;20435;-72
2021/05/17 07:37:21;;;;;;;4.50;2.80;;;12.50;99.90;;;;;;5022616;28;20317;-69
2021/05/17 07:39:47;;;;;;;4.80;2.40;;;12.50;99.90;;;;;;5021605;28;20510;-71
2021/05/17 07:42:13;;;;;;;2.70;1.60;;;12.60;99.90;;;;;;5018431;28;20529;-68
2021/05/17 07:44:38;;;;;;;3.63;2.10;;;12.60;99.90;;;;;;5000914;28;20226;-71
2021/05/17 07:47:04;;;;;;;4.03;2.23;;;12.70;99.90;;;;;;5020038;28;20279;-69
2021/05/17 07:49:38;;;;;;;5.03;1.90;;;12.80;99.90;;;;;;5022288;28;20188;-70
2021/05/17 07:52:05;;;;;;;4.90;1.87;;;13.00;99.90;;;;;;5024397;28;20266;-70
2021/05/17 07:54:31;;;;;;;2.63;1.57;;;13.20;99.90;;;;;;5024650;28;20462;-73
2021/05/17 07:56:58;;;;;;;3.40;1.50;;;13.50;99.90;;;;;;5024271;28;20441;-73
2021/05/17 07:59:28;;;;;;;4.30;1.93;;;13.50;99.90;;;;;;5021282;28;20509;-74
2021/05/17 08:01:55;;;;;;;2.37;1.67;;;13.40;99.90;;;;;;5003427;28;21812;-74
2021/05/17 08:04:21;;;;;;;3.07;1.97;;;13.40;99.90;;;;;;5021336;28;20448;-70
2021/05/17 08:06:47;;;;;;;2.70;1.70;;;13.30;99.90;;;;;;5004543;28;21094;-72
2021/05/17 08:09:12;;;;;;;5.00;2.03;;;13.40;99.90;;;;;;5020597;28;20236;-70
2021/05/17 08:11:38;;;;;;;3.53;1.90;;;13.30;99.90;;;;;;5025490;28;20188;-71
2021/05/17 08:14:04;;;;;;;3.73;2.20;;;13.30;99.90;;;;;;5022933;28;20201;-73
2021/05/17 08:16:31;;;;;;;6.67;2.33;;;13.20;99.90;;;;;;5022834;28;20184;-69
2021/05/17 08:18:57;;;;;;;3.63;1.97;;;13.20;99.90;;;;;;5026000;28;20427;-71
2021/05/17 08:21:23;;;;;;;4.90;1.90;;;13.20;99.90;;;;;;5023188;28;20501;-68
2021/05/17 08:23:52;;;;;;;8.33;2.10;;;13.20;99.90;;;;;;5020259;28;20686;-71
2021/05/17 08:26:17;;;;;;;6.20;1.87;;;13.20;99.90;;;;;;5005819;28;20212;-69
2021/05/17 08:28:43;;;;;;;2.07;1.60;;;13.10;99.90;;;;;;5021664;28;21111;-70
2021/05/17 08:31:14;;;;;;;4.10;1.73;;;13.00;99.90;;;;;;5023784;28;23346;-73
2021/05/17 08:33:41;;;;;;;2.20;1.70;;;12.90;99.90;;;;;;5022355;28;20304;-72
2021/05/17 08:36:07;;;;;;;2.90;1.63;;;12.80;99.90;;;;;;5021918;28;20488;-70
2021/05/17 08:38:33;;;;;;;2.50;1.33;;;12.60;99.90;;;;;;5023027;28;20880;-72
2021/05/17 08:40:59;;;;;;;3.33;1.60;;;12.60;99.90;;;;;;5021627;28;20522;-72
2021/05/17 08:43:28;;;;;;;3.53;2.10;;;12.50;99.90;;;;;;5020961;28;20220;-72
2021/05/17 08:45:54;;;;;;;2.23;1.60;;;12.60;99.90;;;;;;5022612;28;20471;-71
2021/05/17 08:48:20;;;;;;;2.67;1.67;;;12.60;99.90;;;;;;5019926;28;20456;-71
2021/05/17 08:50:46;;;;;;;3.43;2.00;;;12.80;99.90;;;;;;5022321;28;20855;-73
2021/05/17 08:53:12;;;;;;;3.43;1.60;;;12.90;99.90;;;;;;5021313;28;20298;-74
2021/05/17 08:55:38;;;;;;;3.93;1.73;;;13.00;99.90;;;;;;5003080;28;20204;-71
2021/05/17 08:58:04;;;;;;;6.23;1.80;;;13.10;99.90;;;;;;5022504;28;20188;-71
2021/05/17 09:00:30;;;;;;;7.23;1.67;;;13.10;99.90;;;;;;5024944;28;20434;-69
2021/05/17 09:02:55;;;;;;;3.13;1.80;;;13.20;99.90;;;;;;5019376;28;20224;-70
2021/05/17 09:05:37;;;;;;;5.47;1.90;;;13.30;99.90;;;;;;5019757;28;20218;-71
2021/05/17 09:08:04;;;;;;;2.23;1.57;;;13.30;99.90;;;;;;5021745;28;20223;-72
2021/05/17 09:10:35;;;;;;;2.47;1.70;;;13.30;99.90;;;;;;5020168;28;20442;-71
2021/05/17 09:13:15;;;;;;;4.70;2.00;;;13.30;99.90;;;;;;5021746;28;20463;-70
2021/05/17 09:15:51;;;;;;;2.43;1.80;;;13.30;99.90;;;;;;5023071;28;20948;-69
2021/05/17 09:18:35;;;;;;;2.90;2.23;;;13.30;99.90;;;;;;5017619;28;20439;-71
2021/05/17 09:21:05;;;;;;;3.00;1.70;;;13.30;99.90;;;;;;5023548;28;20466;-73
2021/05/17 09:23:35;;;;;;;3.60;1.80;;;13.30;99.90;;;;;;5001776;28;20471;-71
2021/05/17 09:26:09;;;;;;;1.80;1.70;;;13.30;99.90;;;;;;5020058;28;20459;-70
2021/05/17 09:28:46;;;;;;;2.03;1.83;;;13.30;99.90;;;;;;5022596;28;21017;-71
2021/05/17 09:31:17;;;;;;;4.93;2.23;;;13.40;99.90;;;;;;5019565;28;21057;-73
2021/05/17 09:33:43;;;;;;;1.60;1.50;;;13.50;99.90;;;;;;5018382;28;20454;-72
2021/05/17 09:36:30;;;;;;;3.83;1.80;;;13.70;99.90;;;;;;5022978;28;20443;-74
2021/05/17 09:38:59;;;;;;;2.33;1.43;;;13.90;99.90;;;;;;5023249;28;20748;-72
2021/05/17 09:41:56;;;;;;;2.90;1.80;;;14.00;99.90;;;;;;5018136;28;20436;-74
2021/05/17 09:44:27;;;;;;;1.67;1.50;;;14.20;99.90;;;;;;5023042;28;20580;-72
2021/05/17 09:47:05;;;;;;;1.80;1.50;;;13.90;99.90;;;;;;5017483;28;20676;-72
2021/05/17 09:49:31;;;;;;;1.63;1.53;;;13.80;99.90;;;;;;5021045;28;20450;-72
2021/05/17 09:52:17;;;;;;;1.60;1.50;;;13.60;99.90;;;;;;5005020;28;20423;-71
2021/05/17 09:55:03;;;;;;;2.10;1.40;;;13.40;99.90;;;;;;5021917;28;20177;-71
2021/05/17 09:57:36;;;;;;;6.00;1.30;;;13.20;99.90;;;;;;5020078;28;20419;-71
2021/05/17 10:00:13;;;;;;;2.10;1.47;;;12.90;99.90;;;;;;5020328;28;20439;-72
2021/05/17 10:02:52;;;;;;;1.70;1.50;;;12.70;99.90;;;;;;5015805;28;21032;-72
2021/05/17 10:05:31;;;;;;;1.97;1.40;;;12.50;99.90;;;;;;4999930;28;20760;-71
2021/05/17 10:08:03;;;;;;;2.90;1.53;;;12.50;99.90;;;;;;5017181;28;21274;-70
2021/05/17 10:10:30;;;;;;;4.43;1.63;;;12.50;99.90;;;;;;5014850;28;20566;-71
2021/05/17 10:12:58;;;;;;;1.60;1.40;;;12.70;99.90;;;;;;5016237;28;20621;-72
2021/05/17 10:15:26;;;;;;;3.77;2.10;;;13.10;99.90;;;;;;5016125;28;20423;-72
2021/05/17 10:17:52;;;;;;;2.40;2.20;;;13.30;99.90;;;;;;5016264;28;20454;-72
2021/05/17 10:20:21;;;;;;;3.47;1.87;;;13.50;99.90;;;;;;5017400;28;20494;-72
2021/05/17 10:22:48;;;;;;;4.37;2.07;;;13.80;99.90;;;;;;5018866;28;20467;-71
2021/05/17 10:25:22;;;;;;;3.10;2.03;;;14.00;99.90;;;;;;5018818;28;20550;-72
2021/05/17 10:27:55;;;;;;;4.67;1.70;;;13.90;99.90;;;;;;5014651;28;20538;-72
2021/05/17 10:30:28;;;;;;;4.00;1.90;;;13.90;99.90;;;;;;5016409;28;20888;-72
2021/05/17 10:32:56;;;;;;;4.10;1.80;;;13.70;99.90;;;;;;5017790;28;20489;-71
2021/05/17 10:35:42;;;;;;;2.17;1.60;;;13.60;99.90;;;;;;5017660;28;21387;-71
2021/05/17 10:38:45;;;;;;;3.30;1.93;;;13.60;99.90;;;;;;5021311;28;20489;-71
2021/05/17 10:43:57;;;;;;;4.37;1.90;;;13.50;99.90;;;;;;5018129;28;20463;-71
2021/05/17 10:47:02;;;;;;;4.23;1.80;;;13.50;99.90;;;;;;5021513;28;20524;-71
2021/05/17 10:49:38;;;;;;;2.70;1.90;;;13.60;99.90;;;;;;5007074;28;20509;-71
2021/05/17 10:52:04;;;;;;;5.43;1.80;;;13.80;99.90;;;;;;5024107;28;20427;-72
2021/05/17 10:54:36;;;;;;;4.33;1.90;;;14.20;99.90;;;;;;5023037;28;20447;-70
2021/05/17 10:57:05;;;;;;;1.83;1.73;;;14.50;99.90;;;;;;5026380;28;20185;-71
2021/05/17 11:02:21;;;;;;;2.10;1.60;;;15.00;99.90;;;;;;5024846;28;20467;-70
2021/05/17 11:04:46;;;;;;;3.00;1.77;;;15.00;99.90;;;;;;5024841;28;20474;-71
2021/05/17 11:07:44;;;;;;;2.27;1.40;;;14.70;99.90;;;;;;5025322;28;20470;-72
2021/05/17 11:10:12;;;;;;;2.00;1.90;;;14.60;99.90;;;;;;5024152;28;20188;-71
2021/05/17 11:12:41;;;;;;;6.60;1.60;;;14.70;99.90;;;;;;5025827;28;20475;-70
2021/05/17 11:15:09;;;;;;;6.77;1.80;;;14.80;99.90;;;;;;5024373;28;20910;-70
2021/05/17 11:17:59;;;;;;;3.50;1.70;;;14.80;99.90;;;;;;5024104;28;20458;-70
2021/05/17 11:20:59;;;;;;;1.40;1.30;;;15.00;99.90;;;;;;5022620;28;20445;-69
2021/05/17 11:23:28;;;;;;;2.43;1.60;;;15.10;99.90;;;;;;5007736;28;20795;-72
2021/05/17 11:26:00;;;;;;;3.33;1.60;;;15.20;99.90;;;;;;5022447;28;20457;-69
2021/05/17 11:28:41;;;;;;;2.20;1.50;;;15.50;99.90;;;;;;5025075;28;20458;-70
2021/05/17 11:31:25;;;;;;;2.07;1.63;;;15.40;99.90;;;;;;5023843;28;21479;-70
2021/05/17 11:33:56;;;;;;;4.50;2.10;;;15.20;99.90;;;;;;5021719;28;20465;-71
2021/05/17 11:36:39;;;;;;;1.83;1.50;;;15.40;99.90;;;;;;5023081;28;20491;-70
2021/05/17 11:39:10;;;;;;;2.27;1.60;;;16.00;99.90;;;;;;5025704;28;20453;-69
2021/05/17 11:41:38;;;;;;;2.20;1.60;;;16.30;99.90;;;;;;5022742;28;20439;-70
2021/05/17 11:44:06;;;;;;;3.13;1.80;;;16.00;99.90;;;;;;5009206;28;21015;-70
2021/05/17 11:46:34;;;;;;;3.63;1.60;;;15.60;99.90;;;;;;5023776;28;20475;-70
2021/05/17 11:49:00;;;;;;;4.07;2.10;;;15.40;99.90;;;;;;5024884;28;21019;-71
2021/05/17 11:51:27;;;;;;;1.83;1.73;;;15.20;99.90;;;;;;5024536;28;21004;-72
2021/05/17 11:53:54;;;;;;;1.90;1.40;;;15.10;99.90;;;;;;5023529;28;20987;-70
2021/05/17 11:56:21;;;;;;;1.50;1.40;;;14.90;99.90;;;;;;5021761;28;21709;-70
2021/05/17 11:59:23;;;;;;;2.50;1.50;;;14.70;99.90;;;;;;5020690;28;20832;-73
2021/05/17 12:01:51;;;;;;;3.20;2.10;;;14.60;99.90;;;;;;4956030;28;20434;-71
2021/05/17 12:04:24;;;;;;;3.47;2.53;;;14.40;99.90;;;;;;5012023;28;21055;-72
2021/05/17 12:07:10;;;;;;;2.23;1.50;;;14.20;99.90;;;;;;5015726;28;20471;-71
2021/05/17 12:09:44;;;;;;;1.40;1.30;;;14.00;99.90;;;;;;5020266;28;20440;-70
2021/05/17 12:12:11;;;;;;;8.80;6.20;;;14.00;99.90;;;;;;5019793;28;20427;-71
2021/05/17 12:14:39;;;;;;;1.67;1.57;;;14.10;99.90;;;;;;4999783;28;20450;-71
2021/05/17 12:17:29;;;;;;;1.60;1.50;;;14.20;99.90;;;;;;5021031;28;20450;-70
2021/05/17 12:19:57;;;;;;;3.10;1.40;;;14.30;99.90;;;;;;5012018;28;20435;-73
2021/05/17 12:22:27;;;;;;;1.70;1.60;;;14.20;99.90;;;;;;5020295;28;20509;-69
2021/05/17 12:24:58;;;;;;;2.13;1.70;;;14.30;99.90;;;;;;5023195;28;20508;-69
2021/05/17 12:27:25;;;;;;;4.10;1.87;;;14.30;99.90;;;;;;5004032;28;20416;-70
2021/05/17 12:29:55;;;;;;;2.17;1.60;;;14.20;99.90;;;;;;5021087;28;20439;-71
2021/05/17 12:32:32;;;;;;;4.93;1.67;;;14.20;99.90;;;;;;5021192;28;20963;-69
2021/05/17 12:35:15;;;;;;;3.00;2.43;;;14.10;99.90;;;;;;5021960;28;20985;-70
2021/05/17 12:37:45;;;;;;;3.43;1.73;;;14.10;99.90;;;;;;5019115;28;21157;-71
2021/05/17 12:40:12;;;;;;;6.00;1.87;;;14.00;99.90;;;;;;5019489;28;20971;-71
2021/05/17 12:42:39;;;;;;;2.90;1.53;;;13.80;99.90;;;;;;5021233;28;21105;-70
2021/05/17 12:45:08;;;;;;;2.90;1.73;;;13.70;99.90;;;;;;5018480;28;20467;-70
2021/05/17 12:47:45;;;;;;;1.73;1.63;;;13.60;99.90;;;;;;5021855;28;20439;-71
2021/05/17 12:50:20;;;;;;;2.60;1.67;;;13.60;99.90;;;;;;5021525;28;20818;-70
2021/05/17 12:52:48;;;;;;;3.30;1.50;;;13.60;99.90;;;;;;5004478;28;20459;-71
2021/05/17 12:55:20;;;;;;;1.77;1.67;;;13.50;99.90;;;;;;5021628;28;20478;-71
2021/05/17 12:57:59;;;;;;;9.40;2.27;;;13.30;99.90;;;;;;5004930;28;20469;-71
2021/05/17 13:00:43;;;;;;;2.70;1.70;;;13.20;99.90;;;;;;5019291;28;20423;-69
2021/05/17 13:03:21;;;;;;;2.43;1.60;;;13.20;99.90;;;;;;5016329;28;20973;-70
2021/05/17 13:06:10;;;;;;;1.47;1.37;;;13.30;99.90;;;;;;5022412;28;20469;-71
2021/05/17 13:08:35;;;;;;;2.03;1.53;;;13.40;99.90;;;;;;5022108;28;20427;-71
2021/05/17 13:11:09;;;;;;;2.77;1.47;;;13.60;99.90;;;;;;5001395;28;21160;-71
2021/05/17 13:13:46;;;;;;;1.53;1.40;;;13.80;99.90;;;;;;5002762;28;20216;-72
2021/05/17 13:16:13;;;;;;;1.50;1.40;;;13.90;99.90;;;;;;5018788;28;20566;-71
2021/05/17 13:32:26;;;;;;;1.63;1.53;;;14.10;99.90;;;;;;5019291;28;20459;-71
2021/05/17 13:34:52;;;;;;;1.70;1.60;;;14.10;99.90;;;;;;5020134;28;20488;-70
2021/05/17 13:37:17;;;;;;;2.47;1.30;;;14.00;99.90;;;;;;5017114;28;20857;-71
2021/05/17 13:39:43;;;;;;;2.30;1.97;;;13.90;99.90;;;;;;5022172;28;20216;-72
2021/05/17 13:42:08;;;;;;;1.53;1.30;;;13.80;99.90;;;;;;5017545;28;20286;-69
2021/05/17 13:44:34;;;;;;;3.20;1.63;;;13.80;99.90;;;;;;5018711;28;20220;-71